createdAt,value
2022-12-14T00:01:31.404Z,100.00
2022-12-14T00:03:57.926Z,100.00
2022-12-14T00:06:28.890Z,100.00
2022-12-14T00:08:59.703Z,100.00
2022-12-14T00:11:26.721Z,100.00
2022-12-14T00:13:54.310Z,100.00
2022-12-14T00:16:21.472Z,100.00
2022-12-14T00:18:52.539Z,100.00
2022-12-14T00:21:19.547Z,100.00
2022-12-14T00:23:46.626Z,100.00
2022-12-14T00:26:14.399Z,100.00
2022-12-14T00:28:41.489Z,100.00
2022-12-14T00:31:08.815Z,100.00
2022-12-14T00:33:35.560Z,100.00
2022-12-14T00:36:03.023Z,100.00
2022-12-14T00:38:29.798Z,100.00
2022-12-14T00:40:56.541Z,100.00
2022-12-14T00:43:23.291Z,100.00
2022-12-14T00:45:50.002Z,100.00
2022-12-14T00:48:17.547Z,100.00
2022-12-14T00:50:48.525Z,100.00
2022-12-14T00:53:16.096Z,100.00
2022-12-14T00:55:43.673Z,100.00
2022-12-14T00:58:11.195Z,100.00
2022-12-14T01:00:38.010Z,100.00
2022-12-14T01:03:04.980Z,100.00
2022-12-14T01:05:31.505Z,100.00
2022-12-14T01:07:58.023Z,100.00
2022-12-14T01:10:24.568Z,100.00
2022-12-14T01:12:51.053Z,100.00
2022-12-14T01:15:17.576Z,100.00
2022-12-14T01:17:44.083Z,100.00
2022-12-14T01:20:10.890Z,100.00
2022-12-14T01:22:37.902Z,100.00
2022-12-14T01:25:05.316Z,100.00
2022-12-14T01:27:31.815Z,100.00
2022-12-14T01:29:58.313Z,100.00
2022-12-14T01:32:24.801Z,100.00
2022-12-14T01:34:51.313Z,100.00
2022-12-14T01:37:17.818Z,100.00
2022-12-14T01:39:44.289Z,100.00
2022-12-14T01:42:14.340Z,100.00
2022-12-14T01:44:40.817Z,100.00
2022-12-14T01:47:12.785Z,100.00
2022-12-14T01:49:44.741Z,100.00
2022-12-14T01:52:13.778Z,100.00
2022-12-14T01:54:42.471Z,100.00
2022-12-14T01:57:17.263Z,100.00
2022-12-14T01:59:45.340Z,100.00
2022-12-14T02:02:13.445Z,100.00
2022-12-14T02:04:42.646Z,100.00
2022-12-14T02:07:10.006Z,100.00
2022-12-14T02:09:39.349Z,100.00
2022-12-14T02:12:11.244Z,100.00
2022-12-14T02:14:38.693Z,100.00
2022-12-14T02:17:07.077Z,100.00
2022-12-14T02:19:33.685Z,100.00
2022-12-14T02:22:12.395Z,100.00
2022-12-14T02:24:39.357Z,100.00
2022-12-14T02:27:17.740Z,100.00
2022-12-14T02:29:44.213Z,100.00
2022-12-14T02:32:30.924Z,100.00
2022-12-14T02:35:07.184Z,100.00
2022-12-14T02:37:39.110Z,100.00
2022-12-14T02:40:11.721Z,100.00
2022-12-14T02:42:46.587Z,100.00
2022-12-14T02:45:23.916Z,100.00
2022-12-14T02:48:10.693Z,100.00
2022-12-14T02:51:03.476Z,100.00
2022-12-14T02:53:34.921Z,100.00
2022-12-14T02:56:04.224Z,100.00
2022-12-14T02:58:36.598Z,100.00
2022-12-14T03:01:03.955Z,100.00
2022-12-14T03:03:31.054Z,100.00
2022-12-14T03:06:14.904Z,100.00
2022-12-14T03:08:43.401Z,100.00
2022-12-14T03:11:11.808Z,100.00
2022-12-14T03:13:42.095Z,100.00
2022-12-14T03:16:15.193Z,100.00
2022-12-14T03:18:46.531Z,100.00
2022-12-14T03:21:15.760Z,100.00
2022-12-14T03:23:43.906Z,100.00
2022-12-14T03:26:20.828Z,100.00
2022-12-14T03:28:49.964Z,100.00
2022-12-14T03:31:24.988Z,100.00
2022-12-14T03:33:54.716Z,100.00
2022-12-14T03:36:30.642Z,100.00
2022-12-14T03:38:59.120Z,100.00
2022-12-14T03:41:37.867Z,100.00
2022-12-14T03:44:07.356Z,100.00
2022-12-14T03:46:33.832Z,100.00
2022-12-14T03:49:06.125Z,100.00
2022-12-14T03:51:32.602Z,100.00
2022-12-14T03:53:59.105Z,100.00
2022-12-14T03:56:34.578Z,100.00
2022-12-14T03:59:06.977Z,100.00
2022-12-14T04:01:36.671Z,100.00
2022-12-14T04:04:05.875Z,100.00
2022-12-14T04:06:43.694Z,100.00
2022-12-14T04:09:10.179Z,100.00
2022-12-14T04:12:00.486Z,100.00
2022-12-14T04:14:49.320Z,100.00
2022-12-14T04:17:37.666Z,100.00
2022-12-14T04:20:04.215Z,100.00
2022-12-14T04:22:33.745Z,100.00
2022-12-14T04:25:24.012Z,100.00
2022-12-14T04:28:03.404Z,100.00
2022-12-14T04:30:32.704Z,100.00
2022-12-14T04:33:21.198Z,100.00
2022-12-14T04:35:48.917Z,100.00
2022-12-14T04:38:35.630Z,100.00
2022-12-14T04:41:06.122Z,100.00
2022-12-14T04:43:36.234Z,100.00
2022-12-14T04:46:08.404Z,100.00
2022-12-14T04:48:45.122Z,100.00
2022-12-14T04:51:31.404Z,100.00
2022-12-14T04:54:01.774Z,100.00
2022-12-14T04:56:42.994Z,100.00
2022-12-14T04:59:09.804Z,100.00
2022-12-14T05:02:02.270Z,100.00
2022-12-14T05:04:56.785Z,100.00
2022-12-14T05:07:26.011Z,100.00
2022-12-14T05:09:56.859Z,100.00
2022-12-14T05:12:43.624Z,100.00
2022-12-14T05:15:20.439Z,100.00
2022-12-14T05:17:47.380Z,100.00
2022-12-14T05:20:15.507Z,100.00
2022-12-14T05:22:42.049Z,100.00
2022-12-14T05:25:08.829Z,100.00
2022-12-14T05:27:35.329Z,100.00
2022-12-14T05:30:02.358Z,100.00
2022-12-14T05:32:29.163Z,100.00
2022-12-14T05:34:55.954Z,100.00
2022-12-14T05:37:22.574Z,100.00
2022-12-14T05:43:12.254Z,100.00
2022-12-14T05:45:38.893Z,100.00
2022-12-14T05:48:05.645Z,100.00
2022-12-14T05:50:32.227Z,100.00
2022-12-14T05:52:58.778Z,100.00
2022-12-14T05:55:25.261Z,100.00
2022-12-14T05:57:51.748Z,100.00
2022-12-14T06:00:18.399Z,100.00
2022-12-14T06:02:45.100Z,100.00
2022-12-14T06:05:11.699Z,100.00
2022-12-14T06:07:38.177Z,100.00
2022-12-14T06:10:04.864Z,100.00
2022-12-14T06:12:31.496Z,100.00
2022-12-14T06:14:58.212Z,100.00
2022-12-14T06:17:24.699Z,100.00
2022-12-14T06:19:51.723Z,100.00
2022-12-14T06:22:18.844Z,100.00
2022-12-14T06:24:45.492Z,100.00
2022-12-14T06:27:12.077Z,100.00
2022-12-14T06:29:38.599Z,100.00
2022-12-14T06:32:05.231Z,100.00
2022-12-14T06:34:35.357Z,100.00
2022-12-14T06:37:06.317Z,100.00
2022-12-14T06:39:33.164Z,100.00
2022-12-14T06:41:59.644Z,100.00
2022-12-14T06:44:26.172Z,100.00
2022-12-14T06:46:52.736Z,100.00
2022-12-14T06:49:19.328Z,100.00
2022-12-14T06:51:46.260Z,100.00
2022-12-14T06:54:13.014Z,100.00
2022-12-14T06:56:40.713Z,100.00
2022-12-14T06:59:08.824Z,100.00
2022-12-14T07:01:36.268Z,100.00
2022-12-14T07:04:02.831Z,100.00
2022-12-14T07:06:32.195Z,100.00
2022-12-14T07:08:59.123Z,100.00
2022-12-14T07:11:26.243Z,100.00
2022-12-14T07:13:53.135Z,100.00
2022-12-14T07:16:21.728Z,100.00
2022-12-14T07:18:48.790Z,100.00
2022-12-14T07:21:16.264Z,100.00
2022-12-14T07:23:43.637Z,100.00
2022-12-14T07:26:11.757Z,100.00
2022-12-14T07:28:38.959Z,100.00
2022-12-14T07:31:07.892Z,100.00
2022-12-14T07:33:34.884Z,100.00
2022-12-14T07:36:11.994Z,100.00
2022-12-14T07:38:39.499Z,100.00
2022-12-14T07:41:22.834Z,100.00
2022-12-14T07:43:50.226Z,100.00
2022-12-14T07:46:18.144Z,100.00
2022-12-14T07:48:48.794Z,100.00
2022-12-14T07:51:16.483Z,100.00
2022-12-14T07:53:43.072Z,100.00
2022-12-14T07:56:14.239Z,100.00
2022-12-14T07:58:41.020Z,100.00
2022-12-14T08:01:34.164Z,100.00
2022-12-14T08:04:00.781Z,100.00
2022-12-14T08:06:28.349Z,100.00
2022-12-14T08:08:55.634Z,100.00
2022-12-14T08:11:22.429Z,100.00
2022-12-14T08:13:59.259Z,100.00
2022-12-14T08:16:26.083Z,100.00
2022-12-14T08:18:53.998Z,100.00
2022-12-14T08:21:22.253Z,100.00
2022-12-14T08:23:49.729Z,100.00
2022-12-14T08:26:16.397Z,100.00
2022-12-14T08:28:42.933Z,100.00
2022-12-14T08:31:10.710Z,100.00
2022-12-14T08:33:38.101Z,100.00
2022-12-14T08:36:05.433Z,100.00
2022-12-14T08:38:31.921Z,100.00
2022-12-14T08:41:02.101Z,100.00
2022-12-14T08:43:29.008Z,100.00
2022-12-14T08:45:55.867Z,100.00
2022-12-14T08:48:22.341Z,100.00
2022-12-14T08:50:49.930Z,100.00
2022-12-14T08:53:16.654Z,100.00
2022-12-14T08:55:43.513Z,100.00
2022-12-14T08:58:10.522Z,100.00
2022-12-14T09:00:39.752Z,100.00
2022-12-14T09:03:06.923Z,100.00
2022-12-14T09:05:35.081Z,100.00
2022-12-14T09:08:01.686Z,100.00
2022-12-14T09:10:28.196Z,100.00
2022-12-14T09:12:54.710Z,100.00
2022-12-14T09:15:21.925Z,100.00
2022-12-14T09:17:49.410Z,100.00
2022-12-14T09:20:15.996Z,100.00
2022-12-14T09:22:42.475Z,100.00
2022-12-14T09:25:09.514Z,100.00
2022-12-14T09:27:36.437Z,100.00
2022-12-14T09:30:03.700Z,100.00
2022-12-14T09:32:30.303Z,100.00
2022-12-14T09:34:56.801Z,100.00
2022-12-14T09:37:23.320Z,100.00
2022-12-14T09:39:49.796Z,100.00
2022-12-14T09:42:26.713Z,100.00
2022-12-14T09:45:02.811Z,100.00
2022-12-14T09:47:41.951Z,100.00
2022-12-14T09:50:16.204Z,100.00
2022-12-14T09:52:47.341Z,100.00
2022-12-14T09:55:17.170Z,100.00
2022-12-14T09:57:44.319Z,100.00
2022-12-14T10:00:14.045Z,100.00
2022-12-14T10:02:45.766Z,100.00
2022-12-14T10:05:24.946Z,100.00
2022-12-14T10:07:57.236Z,100.00
2022-12-14T10:10:26.925Z,100.00
2022-12-14T10:13:13.760Z,100.00
2022-12-14T10:15:59.063Z,100.00
2022-12-14T10:18:59.906Z,100.00
2022-12-14T10:21:29.546Z,100.00
2022-12-14T10:23:58.295Z,100.00
2022-12-14T10:26:28.663Z,100.00
2022-12-14T10:29:03.361Z,100.00
2022-12-14T10:31:41.136Z,100.00
2022-12-14T10:34:20.951Z,100.00
2022-12-14T10:36:50.284Z,100.00
2022-12-14T10:39:32.039Z,100.00
2022-12-14T10:42:08.059Z,100.00
2022-12-14T10:44:50.087Z,100.00
2022-12-14T10:47:34.404Z,100.00
2022-12-14T10:50:13.888Z,100.00
2022-12-14T10:52:42.038Z,100.00
2022-12-14T10:55:14.517Z,100.00
2022-12-14T10:57:41.035Z,100.00
2022-12-14T11:00:22.614Z,100.00
2022-12-14T11:02:54.299Z,100.00
2022-12-14T11:05:38.720Z,100.00
2022-12-14T11:08:09.040Z,100.00
2022-12-14T11:10:37.006Z,100.00
2022-12-14T11:13:05.850Z,100.00
2022-12-14T11:15:34.524Z,100.00
2022-12-14T11:18:06.842Z,100.00
2022-12-14T11:20:34.114Z,99.53
2022-12-14T11:23:18.462Z,100.00
2022-12-14T11:25:46.331Z,100.00
2022-12-14T11:28:32.758Z,100.00
2022-12-14T11:31:04.768Z,100.00
2022-12-14T11:33:33.313Z,100.00
2022-12-14T11:36:23.542Z,100.00
2022-12-14T11:38:56.354Z,100.00
2022-12-14T11:41:23.133Z,99.85
2022-12-14T11:44:06.929Z,99.55
2022-12-14T11:46:52.037Z,100.00
2022-12-14T11:49:27.489Z,100.00
2022-12-14T11:51:55.278Z,99.17
2022-12-14T11:54:21.758Z,98.14
2022-12-14T11:56:52.226Z,99.38
2022-12-14T11:59:19.738Z,98.82
2022-12-14T12:01:46.931Z,97.02
2022-12-14T12:04:15.708Z,97.35
2022-12-14T12:06:42.427Z,98.35
2022-12-14T12:09:25.421Z,98.02
2022-12-14T12:11:51.992Z,97.35
2022-12-14T12:14:34.870Z,97.97
2022-12-14T12:17:01.557Z,97.33
2022-12-14T12:19:30.782Z,97.26
2022-12-14T12:22:00.299Z,97.39
2022-12-14T12:25:00.988Z,96.60
2022-12-14T12:27:27.125Z,97.36
2022-12-14T12:30:29.303Z,98.51
2022-12-14T12:32:57.772Z,97.46
2022-12-14T12:35:30.170Z,97.65
2022-12-14T12:37:58.836Z,98.09
2022-12-14T12:40:38.162Z,97.45
2022-12-14T12:43:17.636Z,98.27
2022-12-14T12:46:05.606Z,97.56
2022-12-14T12:48:36.351Z,97.42
2022-12-14T12:51:06.181Z,97.74
2022-12-14T12:53:44.548Z,98.27
2022-12-14T12:56:13.407Z,97.79
2022-12-14T12:58:41.095Z,98.18
2022-12-14T13:01:29.523Z,99.35
2022-12-14T13:03:59.160Z,100.00
2022-12-14T13:06:30.655Z,100.00
2022-12-14T13:08:58.837Z,100.00
2022-12-14T13:11:38.303Z,100.00
2022-12-14T13:14:19.850Z,100.00
2022-12-14T13:16:46.567Z,100.00
2022-12-14T13:19:50.589Z,100.00
2022-12-14T13:22:06.639Z,100.00
2022-12-14T13:24:36.183Z,100.00
2022-12-14T13:27:17.759Z,100.00
2022-12-14T13:29:44.469Z,100.00
2022-12-14T13:32:17.138Z,100.00
2022-12-14T13:35:00.353Z,100.00
2022-12-14T13:37:26.969Z,100.00
2022-12-14T13:40:11.887Z,100.00
2022-12-14T13:42:41.541Z,100.00
2022-12-14T13:45:34.834Z,100.00
2022-12-14T13:48:01.452Z,100.00
2022-12-14T13:50:37.058Z,100.00
2022-12-14T13:53:23.148Z,100.00
2022-12-14T13:55:54.518Z,100.00
2022-12-14T13:58:21.023Z,100.00
2022-12-14T14:00:50.701Z,100.00
2022-12-14T14:03:35.637Z,100.00
2022-12-14T14:06:21.545Z,100.00
2022-12-14T14:08:49.990Z,100.00
2022-12-14T14:11:39.196Z,100.00
2022-12-14T14:14:12.428Z,100.00
2022-12-14T14:16:42.749Z,100.00
2022-12-14T14:19:09.244Z,100.00
2022-12-14T14:21:58.786Z,100.00
2022-12-14T14:24:27.296Z,100.00
2022-12-14T14:27:10.819Z,100.00
2022-12-14T14:29:44.469Z,100.00
2022-12-14T14:32:26.001Z,100.00
2022-12-14T14:34:52.769Z,100.00
2022-12-14T14:37:25.192Z,100.00
2022-12-14T14:39:58.993Z,100.00
2022-12-14T14:42:30.947Z,100.00
2022-12-14T14:45:02.766Z,100.00
2022-12-14T14:47:33.979Z,100.00
2022-12-14T14:50:01.980Z,100.00
2022-12-14T14:52:37.414Z,100.00
2022-12-14T14:55:51.556Z,100.00
2022-12-14T14:58:08.776Z,100.00
2022-12-14T15:01:01.428Z,100.00
2022-12-14T15:03:51.123Z,100.00
2022-12-14T15:06:21.400Z,100.00
2022-12-14T15:08:50.332Z,100.00
2022-12-14T15:11:19.176Z,100.00
2022-12-14T15:14:05.966Z,100.00
2022-12-14T15:16:40.645Z,100.00
2022-12-14T15:19:23.709Z,100.00
2022-12-14T15:21:51.574Z,100.00
2022-12-14T15:24:19.552Z,100.00
2022-12-14T15:26:46.104Z,100.00
2022-12-14T15:29:20.921Z,100.00
2022-12-14T15:31:52.362Z,100.00
2022-12-14T15:34:22.639Z,100.00
2022-12-14T15:36:49.733Z,100.00
2022-12-14T15:39:30.472Z,100.00
2022-12-14T15:42:10.602Z,100.00
2022-12-14T15:44:37.472Z,100.00
2022-12-14T15:47:04.053Z,100.00
2022-12-14T15:49:30.669Z,100.00
2022-12-14T15:51:57.964Z,100.00
2022-12-14T15:54:25.874Z,100.00
2022-12-14T15:56:56.937Z,100.00
2022-12-14T15:59:23.485Z,100.00
2022-12-14T16:01:58.883Z,100.00
2022-12-14T16:04:29.224Z,100.00
2022-12-14T16:07:08.107Z,100.00
2022-12-14T16:09:38.548Z,100.00
2022-12-14T16:12:27.427Z,100.00
2022-12-14T16:14:57.210Z,100.00
2022-12-14T16:17:34.090Z,100.00
2022-12-14T16:20:02.765Z,100.00
2022-12-14T16:22:32.363Z,100.00
2022-12-14T16:24:58.867Z,100.00
2022-12-14T16:27:26.597Z,100.00
2022-12-14T16:30:11.925Z,100.00
2022-12-14T16:32:38.472Z,100.00
2022-12-14T16:35:05.025Z,100.00
2022-12-14T16:37:33.454Z,100.00
2022-12-14T16:40:00.485Z,100.00
2022-12-14T16:42:27.275Z,100.00
2022-12-14T16:44:54.177Z,100.00
2022-12-14T16:47:20.704Z,100.00
2022-12-14T16:49:50.752Z,100.00
2022-12-14T16:52:20.039Z,100.00
2022-12-14T16:55:05.486Z,100.00
2022-12-14T16:57:32.280Z,100.00
2022-12-14T17:00:00.590Z,100.00
2022-12-14T17:02:35.171Z,100.00
2022-12-14T17:05:23.030Z,100.00
2022-12-14T17:07:50.098Z,100.00
2022-12-14T17:10:23.611Z,100.00
2022-12-14T17:12:51.616Z,100.00
2022-12-14T17:15:20.253Z,100.00
2022-12-14T17:17:49.507Z,100.00
2022-12-14T17:20:26.782Z,100.00
2022-12-14T17:22:54.059Z,100.00
2022-12-14T17:25:20.884Z,100.00
2022-12-14T17:27:47.442Z,100.00
2022-12-14T17:30:16.904Z,100.00
2022-12-14T17:32:43.772Z,100.00
2022-12-14T17:35:36.367Z,100.00
2022-12-14T17:38:02.851Z,100.00
2022-12-14T17:40:29.395Z,100.00
2022-12-14T17:42:57.290Z,100.00
2022-12-14T17:45:25.773Z,100.00
2022-12-14T17:47:52.326Z,100.00
2022-12-14T17:50:19.155Z,100.00
2022-12-14T17:52:46.127Z,100.00
2022-12-14T17:55:16.963Z,100.00
2022-12-14T17:57:44.061Z,100.00
2022-12-14T18:00:33.882Z,100.00
2022-12-14T18:03:00.637Z,100.00
2022-12-14T18:05:27.313Z,100.00
2022-12-14T18:07:53.902Z,100.00
2022-12-14T18:10:20.505Z,100.00
2022-12-14T18:12:46.990Z,100.00
2022-12-14T18:15:21.591Z,100.00
2022-12-14T18:17:49.380Z,100.00
2022-12-14T18:20:16.227Z,100.00
2022-12-14T18:22:42.931Z,100.00
2022-12-14T18:25:22.671Z,100.00
2022-12-14T18:27:49.504Z,100.00
2022-12-14T18:30:16.406Z,100.00
2022-12-14T18:32:42.898Z,100.00
2022-12-14T18:35:15.935Z,100.00
2022-12-14T18:37:42.444Z,100.00
2022-12-14T18:40:12.426Z,100.00
2022-12-14T18:42:38.923Z,100.00
2022-12-14T18:45:06.426Z,100.00
2022-12-14T18:47:41.871Z,100.00
2022-12-14T18:50:09.524Z,100.00
2022-12-14T18:52:36.051Z,100.00
2022-12-14T18:55:02.629Z,100.00
2022-12-14T18:57:29.179Z,100.00
2022-12-14T18:59:56.467Z,100.00
2022-12-14T19:02:23.160Z,100.00
2022-12-14T19:04:50.095Z,100.00
2022-12-14T19:07:16.630Z,100.00
2022-12-14T19:09:43.177Z,100.00
2022-12-14T19:12:11.913Z,100.00
2022-12-14T19:14:38.457Z,100.00
2022-12-14T19:17:04.947Z,100.00
2022-12-14T19:19:38.138Z,100.00
2022-12-14T19:22:09.159Z,100.00
2022-12-14T19:24:36.125Z,100.00
2022-12-14T19:27:02.779Z,100.00
2022-12-14T19:29:29.288Z,100.00
2022-12-14T19:31:59.162Z,100.00
2022-12-14T19:34:29.962Z,100.00
2022-12-14T19:36:56.503Z,100.00
2022-12-14T19:39:23.057Z,100.00
2022-12-14T19:41:49.755Z,100.00
2022-12-14T19:44:16.304Z,100.00
2022-12-14T19:46:42.923Z,100.00
2022-12-14T19:49:11.370Z,100.00
2022-12-14T19:51:37.870Z,100.00
2022-12-14T19:54:06.108Z,100.00
2022-12-14T19:56:32.800Z,100.00
2022-12-14T19:59:00.849Z,100.00
2022-12-14T20:01:32.707Z,100.00
2022-12-14T20:04:00.368Z,100.00
2022-12-14T20:06:27.222Z,100.00
2022-12-14T20:09:01.302Z,100.00
2022-12-14T20:11:27.917Z,100.00
2022-12-14T20:13:58.910Z,100.00
2022-12-14T20:16:27.762Z,100.00
2022-12-14T20:18:54.402Z,100.00
2022-12-14T20:21:22.550Z,100.00
2022-12-14T20:23:49.314Z,100.00
2022-12-14T20:26:18.062Z,100.00
2022-12-14T20:28:47.261Z,100.00
2022-12-14T20:31:16.219Z,100.00
2022-12-14T20:33:43.541Z,100.00
2022-12-14T20:36:11.014Z,100.00
2022-12-14T20:38:38.093Z,100.00
2022-12-14T20:41:12.086Z,100.00
2022-12-14T20:43:40.538Z,100.00
2022-12-14T20:46:07.344Z,100.00
2022-12-14T20:48:33.836Z,100.00
2022-12-14T20:51:01.313Z,100.00
2022-12-14T20:53:29.083Z,100.00
2022-12-14T20:55:56.288Z,100.00
2022-12-14T20:58:22.829Z,100.00
2022-12-14T21:00:49.343Z,100.00
2022-12-14T21:03:15.998Z,100.00
2022-12-14T21:05:42.935Z,100.00
2022-12-14T21:08:09.675Z,100.00
2022-12-14T21:10:36.391Z,100.00
2022-12-14T21:13:07.436Z,100.00
2022-12-14T21:15:35.472Z,100.00
2022-12-14T21:18:02.508Z,100.00
2022-12-14T21:20:29.073Z,100.00
2022-12-14T21:22:55.547Z,100.00
2022-12-14T21:25:22.070Z,100.00
2022-12-14T21:27:48.611Z,100.00
2022-12-14T21:30:16.828Z,100.00
2022-12-14T21:32:43.558Z,100.00
2022-12-14T21:35:10.613Z,100.00
2022-12-14T21:37:37.802Z,100.00
2022-12-14T21:40:04.560Z,100.00
2022-12-14T21:42:31.079Z,100.00
2022-12-14T21:44:57.840Z,100.00
2022-12-14T21:47:25.996Z,100.00
2022-12-14T21:49:52.937Z,100.00
2022-12-14T21:52:23.597Z,100.00
2022-12-14T21:54:50.328Z,100.00
2022-12-14T21:57:36.751Z,100.00
2022-12-14T22:00:04.429Z,100.00
2022-12-14T22:02:31.634Z,100.00
2022-12-14T22:04:58.246Z,100.00
2022-12-14T22:07:26.527Z,100.00
2022-12-14T22:09:53.033Z,100.00
2022-12-14T22:12:19.558Z,100.00
2022-12-14T22:14:46.039Z,100.00
2022-12-14T22:17:13.600Z,100.00
2022-12-14T22:19:40.536Z,100.00
2022-12-14T22:22:07.041Z,100.00
2022-12-14T22:24:33.729Z,100.00
2022-12-14T22:27:00.340Z,100.00
2022-12-14T22:29:26.851Z,100.00
2022-12-14T22:31:53.562Z,100.00
2022-12-14T22:34:21.855Z,100.00
2022-12-14T22:36:49.566Z,100.00
2022-12-14T22:39:16.996Z,100.00
2022-12-14T22:41:43.466Z,100.00
2022-12-14T22:44:10.955Z,100.00
2022-12-14T22:46:37.574Z,100.00
2022-12-14T22:49:04.290Z,100.00
2022-12-14T22:51:30.760Z,100.00
2022-12-14T22:53:57.851Z,100.00
2022-12-14T22:56:28.832Z,100.00
2022-12-14T22:58:55.337Z,100.00
2022-12-14T23:01:21.947Z,100.00
2022-12-14T23:03:48.775Z,100.00
2022-12-14T23:06:17.976Z,100.00
2022-12-14T23:09:03.934Z,100.00
2022-12-14T23:11:49.768Z,100.00
2022-12-14T23:14:34.943Z,100.00
2022-12-14T23:17:19.784Z,100.00
2022-12-14T23:20:05.357Z,100.00
2022-12-14T23:22:50.692Z,100.00
2022-12-14T23:25:35.996Z,100.00
2022-12-14T23:28:21.944Z,100.00
2022-12-14T23:31:06.904Z,100.00
2022-12-14T23:33:52.070Z,100.00
2022-12-14T23:36:37.081Z,100.00
2022-12-14T23:39:22.628Z,100.00
2022-12-14T23:42:07.970Z,100.00
2022-12-14T23:44:53.256Z,100.00
2022-12-14T23:47:38.353Z,100.00
2022-12-14T23:50:23.853Z,100.00
2022-12-14T23:53:08.931Z,100.00
2022-12-14T23:55:54.234Z,100.00
2022-12-14T23:58:39.358Z,100.00
